Portada
METAR-TAF:

METAR-TAF

Aeroports :

Biak, Indonèsia

latitud: 01-11S, longitud: 136-07E, altitud: 11 m

Observació

L'informe es va fer fa 1 hora i 0 minuts, a les 11:00 UTC
Vent calma
Temperatura 28°C
Humitat 84%
Pressió 1011 hPa
Visibilitat 10 km o més
Núvols disperses a una alçada de 1800 ft
Núvols disperses a una alçada de 10000 ft

METAR: WABB 181100Z 00000KT 9999 SCT018 SCT100 28/25 Q1011 NOSIG

Hora: 19:00 (12:00 UTC)

Pronòstic

L'informe es va fer fa 1 hora i 0 minuts, a les 11:00 UTC
Pronòstic vàlid del 18 a les 12 UTC al 19 a les 18 UTC
Vent kt del Nord
Visibilitat 10 km o més
Núvols disperses a una alçada de 1800 ft
Temporalment
l' 18 a les 18 UTC al 18 a les 20 UTC
Visibilitat: 8000 m
Escasses núvols a una alçada de 1700 ft, Cumulonimbus.
xàfecs de pluja
Evolucionant progressivament
l' 18 a les 22 UTC al 19 a les 00 UTC
Vent 5 kt del Nord-Est

TAF: WABB 181100Z 1812/1918 00000KT 9999 SCT018 TEMPO 1818/1820 8000 SHRA FEW017CB BECMG 1822/1900 05005KT

Observacions i pronòstics meteorològics de més de 4000 aeroports (METAR i TAF).

Les estacions disponibles són els punts grocs i vermells al mapa.

Posi el ratolí al punt desitjat per veure el nom de l'estació.

Feu clic per veure les observacions i els pronòstics meteorològics.

Per canviar el mapa: feu clic els botons verds amb una creu de color negre per apropar; al botó verd amb un guió per allunyar la imatge; o en les fletxes verdes per a mapes adjacents.


METAR-TAF: